createdAt,value
2022-08-19T00:01:43.462Z,20.55
2022-08-19T00:04:13.339Z,21.00
2022-08-19T00:06:41.628Z,19.55
2022-08-19T00:09:10.865Z,19.00
2022-08-19T00:11:38.441Z,20.67
2022-08-19T00:14:10.771Z,20.52
2022-08-19T00:16:39.596Z,20.38
2022-08-19T00:19:07.057Z,19.52
2022-08-19T00:21:33.648Z,19.27
2022-08-19T00:24:04.448Z,19.58
2022-08-19T00:26:31.101Z,19.95
2022-08-19T00:28:57.610Z,18.73
2022-08-19T00:31:24.174Z,18.83
2022-08-19T00:33:51.393Z,19.13
2022-08-19T00:36:18.626Z,19.17
2022-08-19T00:38:45.522Z,20.10
2022-08-19T00:41:18.314Z,19.02
2022-08-19T00:44:01.396Z,22.20
2022-08-19T00:46:29.017Z,22.85
2022-08-19T00:48:58.303Z,22.05
2022-08-19T00:51:28.155Z,21.50
2022-08-19T00:53:59.915Z,18.83
2022-08-19T00:56:27.957Z,14.98
2022-08-19T00:58:57.557Z,14.60
2022-08-19T01:01:24.280Z,13.95
2022-08-19T01:03:58.169Z,12.88
2022-08-19T01:06:26.653Z,16.43
2022-08-19T01:08:54.880Z,17.73
2022-08-19T01:11:22.073Z,16.58
2022-08-19T01:13:54.271Z,14.75
2022-08-19T01:16:23.891Z,14.35
2022-08-19T01:18:51.097Z,14.88
2022-08-19T01:21:27.958Z,12.80
2022-08-19T01:23:55.187Z,12.77
2022-08-19T01:26:25.868Z,13.77
2022-08-19T01:28:59.511Z,12.45
2022-08-19T01:31:33.101Z,11.88
2022-08-19T01:34:01.858Z,13.05
2022-08-19T01:36:38.424Z,14.80
2022-08-19T01:42:13.716Z,17.55
2022-08-19T01:44:42.078Z,18.75
2022-08-19T01:47:10.512Z,18.10
2022-08-19T01:49:37.903Z,15.15
2022-08-19T01:52:05.666Z,14.68
2022-08-19T01:54:34.114Z,15.05
2022-08-19T01:57:11.855Z,14.65
2022-08-19T01:59:38.650Z,15.50
2022-08-19T02:02:08.431Z,14.35
2022-08-19T02:04:39.159Z,15.52
2022-08-19T02:07:06.946Z,16.42
2022-08-19T02:09:33.638Z,15.98
2022-08-19T02:12:00.196Z,16.38
2022-08-19T02:14:28.039Z,16.08
2022-08-19T02:16:54.573Z,16.33
2022-08-19T02:19:21.264Z,16.98
2022-08-19T02:21:48.004Z,27.98
2022-08-19T02:24:15.141Z,24.40
2022-08-19T02:26:41.680Z,24.20
2022-08-19T02:29:08.643Z,21.77
2022-08-19T02:31:35.223Z,16.55
2022-08-19T02:34:03.338Z,17.02
2022-08-19T02:36:31.154Z,17.00
2022-08-19T02:38:57.664Z,18.40
2022-08-19T02:41:29.797Z,17.95
2022-08-19T02:44:22.786Z,18.30
2022-08-19T02:46:51.704Z,20.90
2022-08-19T02:49:19.414Z,22.88
2022-08-19T02:51:47.038Z,23.92
2022-08-19T02:54:17.048Z,28.00
2022-08-19T02:56:44.367Z,27.20
2022-08-19T02:59:12.280Z,28.33
2022-08-19T03:01:41.818Z,26.73
2022-08-19T03:04:10.335Z,26.60
2022-08-19T03:06:39.382Z,26.88
2022-08-19T03:09:06.041Z,27.13
2022-08-19T03:11:34.197Z,25.00
2022-08-19T03:14:02.183Z,25.50
2022-08-19T03:16:33.534Z,22.73
2022-08-19T03:19:02.460Z,21.65
2022-08-19T03:21:34.244Z,24.83
2022-08-19T03:24:05.918Z,28.65
2022-08-19T03:26:33.126Z,27.98
2022-08-19T03:29:04.881Z,24.77
2022-08-19T03:31:43.731Z,22.17
2022-08-19T03:34:28.570Z,21.55
2022-08-19T03:36:57.931Z,27.60
2022-08-19T03:39:26.946Z,26.92
2022-08-19T03:42:32.401Z,25.25
2022-08-19T03:44:47.770Z,22.55
2022-08-19T03:47:17.778Z,22.88
2022-08-19T03:49:44.953Z,24.08
2022-08-19T03:52:11.761Z,23.52
2022-08-19T03:54:39.519Z,21.63
2022-08-19T03:57:06.806Z,21.70
2022-08-19T03:59:36.183Z,20.50
2022-08-19T04:02:09.365Z,21.45
2022-08-19T04:04:37.931Z,23.60
2022-08-19T04:07:04.772Z,22.13
2022-08-19T04:09:31.411Z,25.30
2022-08-19T04:11:58.706Z,28.80
2022-08-19T04:14:31.113Z,28.98
2022-08-19T04:16:58.374Z,26.00
2022-08-19T04:19:25.709Z,24.30
2022-08-19T04:21:54.722Z,23.98
2022-08-19T04:24:24.867Z,23.27
2022-08-19T04:26:51.767Z,22.27
2022-08-19T04:29:22.748Z,23.55
2022-08-19T04:31:50.567Z,21.65
2022-08-19T04:34:23.277Z,22.00
2022-08-19T04:36:54.364Z,21.50
2022-08-19T04:39:47.176Z,21.15
2022-08-19T04:42:33.305Z,23.52
2022-08-19T04:45:00.086Z,22.58
2022-08-19T04:47:48.272Z,22.27
2022-08-19T04:50:13.438Z,22.05
2022-08-19T04:52:43.705Z,21.38
2022-08-19T04:55:14.615Z,21.63
2022-08-19T04:57:41.498Z,21.40
2022-08-19T05:00:10.360Z,21.88
2022-08-19T05:02:37.142Z,22.77
2022-08-19T05:05:04.226Z,24.58
2022-08-19T05:07:31.797Z,24.73
2022-08-19T05:09:59.288Z,23.75
2022-08-19T05:12:28.845Z,23.58
2022-08-19T05:14:57.888Z,20.90
2022-08-19T05:17:27.967Z,21.65
2022-08-19T05:20:15.139Z,23.88
2022-08-19T05:22:42.849Z,24.35
2022-08-19T05:25:14.625Z,25.10
2022-08-19T05:27:42.651Z,25.58
2022-08-19T05:30:10.346Z,27.33
2022-08-19T05:32:37.005Z,29.45
2022-08-19T05:35:05.591Z,28.67
2022-08-19T05:37:32.216Z,27.20
2022-08-19T05:39:59.055Z,26.70
2022-08-19T05:42:27.442Z,26.02
2022-08-19T05:44:54.475Z,25.60
2022-08-19T05:47:21.228Z,25.75
2022-08-19T05:49:50.856Z,24.90
2022-08-19T05:52:18.914Z,24.42
2022-08-19T05:54:48.680Z,26.92
2022-08-19T05:57:19.632Z,25.00
2022-08-19T05:59:49.179Z,27.73
2022-08-19T06:02:15.898Z,29.58
2022-08-19T06:04:45.635Z,30.23
2022-08-19T06:07:13.088Z,36.25
2022-08-19T06:09:41.310Z,37.80
2022-08-19T06:12:10.197Z,43.20
2022-08-19T06:14:42.465Z,41.50
2022-08-19T06:17:09.252Z,44.35
2022-08-19T06:19:41.047Z,43.30
2022-08-19T06:22:09.009Z,44.50
2022-08-19T06:24:37.215Z,43.35
2022-08-19T06:27:04.273Z,44.28
2022-08-19T06:29:31.144Z,43.25
2022-08-19T06:32:00.577Z,42.63
2022-08-19T06:34:30.085Z,41.33
2022-08-19T06:36:58.572Z,40.13
2022-08-19T06:39:28.693Z,40.65
2022-08-19T06:41:59.586Z,40.80
2022-08-19T06:44:38.442Z,39.67
2022-08-19T06:47:14.642Z,39.47
2022-08-19T06:49:41.847Z,39.38
2022-08-19T06:52:08.923Z,38.33
2022-08-19T06:54:40.593Z,40.20
2022-08-19T06:57:24.249Z,37.92
2022-08-19T06:59:50.913Z,36.03
2022-08-19T07:04:47.104Z,36.45
2022-08-19T07:07:21.014Z,36.33
2022-08-19T07:09:52.217Z,35.72
2022-08-19T07:12:25.595Z,34.28
2022-08-19T07:14:53.701Z,35.00
2022-08-19T07:17:21.667Z,33.05
2022-08-19T07:19:48.585Z,32.95
2022-08-19T07:22:15.885Z,32.55
2022-08-19T07:24:45.354Z,32.00
2022-08-19T07:27:24.382Z,33.80
2022-08-19T07:29:56.243Z,34.25
2022-08-19T07:32:28.427Z,32.30
2022-08-19T07:34:56.787Z,33.28
2022-08-19T07:37:32.052Z,32.72
2022-08-19T07:39:59.748Z,31.65
2022-08-19T07:42:26.496Z,32.10
2022-08-19T07:44:54.097Z,31.48
2022-08-19T07:47:48.197Z,32.92
2022-08-19T07:50:10.252Z,33.97
2022-08-19T07:52:40.247Z,32.33
2022-08-19T07:55:11.334Z,32.35
2022-08-19T07:57:56.185Z,30.98
2022-08-19T08:00:24.262Z,31.17
2022-08-19T08:02:52.182Z,32.58
2022-08-19T08:05:44.324Z,31.40
2022-08-19T08:08:31.408Z,31.45
2022-08-19T08:10:59.483Z,30.25
2022-08-19T08:13:36.045Z,31.30
2022-08-19T08:16:03.828Z,31.02
2022-08-19T08:18:30.745Z,29.42
2022-08-19T08:20:58.156Z,29.02
2022-08-19T08:23:27.802Z,27.23
2022-08-19T08:25:58.847Z,27.70
2022-08-19T08:28:29.630Z,26.30
2022-08-19T08:30:58.224Z,23.90
2022-08-19T08:33:34.353Z,23.33
2022-08-19T08:36:11.852Z,24.98
2022-08-19T08:38:40.211Z,23.42
2022-08-19T08:41:29.087Z,21.90
2022-08-19T08:43:58.239Z,22.73
2022-08-19T08:46:43.150Z,20.33
2022-08-19T08:49:34.254Z,20.48
2022-08-19T08:52:08.294Z,19.60
2022-08-19T08:54:40.250Z,19.38
2022-08-19T08:57:16.509Z,19.35
2022-08-19T08:59:49.931Z,17.52
2022-08-19T09:02:16.906Z,18.60
2022-08-19T09:04:44.117Z,17.83
2022-08-19T09:07:34.848Z,18.77
2022-08-19T09:10:45.180Z,15.98
2022-08-19T09:13:32.213Z,17.58
2022-08-19T09:16:10.314Z,17.40
2022-08-19T09:18:43.029Z,18.60
2022-08-19T09:21:09.952Z,19.15
2022-08-19T09:23:41.625Z,19.33
2022-08-19T09:26:16.588Z,20.08
2022-08-19T09:28:45.320Z,21.75
2022-08-19T09:31:19.690Z,22.75
2022-08-19T09:33:52.288Z,24.13
2022-08-19T09:36:34.597Z,24.10
2022-08-19T09:39:02.206Z,23.90
2022-08-19T09:41:29.889Z,24.95
2022-08-19T09:44:00.867Z,25.80
2022-08-19T09:46:31.192Z,25.30
2022-08-19T09:49:06.177Z,27.58
2022-08-19T09:51:34.004Z,26.98
2022-08-19T09:54:04.879Z,26.27
2022-08-19T09:56:32.711Z,25.73
2022-08-19T09:59:01.458Z,26.20
2022-08-19T10:01:30.888Z,24.17
2022-08-19T10:04:01.298Z,25.83
2022-08-19T10:06:38.170Z,25.42
2022-08-19T10:09:15.430Z,26.02
2022-08-19T10:11:52.251Z,23.25
2022-08-19T10:14:24.782Z,20.92
2022-08-19T10:16:52.737Z,19.92
2022-08-19T10:19:26.027Z,18.58
2022-08-19T10:21:53.825Z,17.13
2022-08-19T10:24:25.405Z,17.80
2022-08-19T10:26:57.134Z,18.35
2022-08-19T10:29:32.448Z,19.40
2022-08-19T10:32:09.402Z,18.55
2022-08-19T10:34:48.179Z,18.95
2022-08-19T10:37:15.064Z,18.00
2022-08-19T10:39:48.833Z,17.65
2022-08-19T10:42:17.119Z,18.30
2022-08-19T10:44:43.676Z,18.85
2022-08-19T10:47:17.914Z,19.33
2022-08-19T10:50:12.526Z,18.30
2022-08-19T10:52:49.161Z,18.35
2022-08-19T10:55:41.971Z,17.95
2022-08-19T10:58:18.096Z,19.60
2022-08-19T11:00:52.797Z,18.95
2022-08-19T11:03:19.926Z,18.40
2022-08-19T11:05:46.581Z,20.45
2022-08-19T11:08:23.237Z,19.05
2022-08-19T11:10:57.753Z,20.02
2022-08-19T11:13:25.479Z,19.33
2022-08-19T11:16:07.682Z,18.83
2022-08-19T11:18:39.703Z,18.73
2022-08-19T11:21:12.010Z,20.88
2022-08-19T11:23:38.944Z,18.30
2022-08-19T11:26:05.853Z,17.48
2022-08-19T11:28:32.603Z,18.77
2022-08-19T11:30:59.208Z,20.58
2022-08-19T11:33:31.441Z,19.00
2022-08-19T11:36:00.180Z,21.00
2022-08-19T11:38:27.341Z,19.83
2022-08-19T11:40:59.338Z,21.85
2022-08-19T11:43:32.391Z,19.02
2022-08-19T11:46:07.821Z,20.75
2022-08-19T11:48:35.526Z,20.25
2022-08-19T11:51:07.061Z,16.90
2022-08-19T11:53:37.915Z,16.58
2022-08-19T11:56:05.647Z,16.08
2022-08-19T11:58:32.377Z,15.38
2022-08-19T12:00:58.949Z,16.27
2022-08-19T12:03:27.394Z,15.38
2022-08-19T12:05:54.097Z,16.95
2022-08-19T12:08:20.681Z,15.80
2022-08-19T12:10:47.274Z,14.90
2022-08-19T12:13:19.585Z,17.50
2022-08-19T12:15:48.244Z,14.80
2022-08-19T12:18:15.714Z,13.70
2022-08-19T12:20:43.984Z,14.98
2022-08-19T12:23:11.775Z,15.30
2022-08-19T12:25:51.115Z,13.05
2022-08-19T12:28:18.515Z,11.60
2022-08-19T12:30:45.101Z,11.48
2022-08-19T12:33:15.509Z,15.68
2022-08-19T12:35:45.751Z,15.38
2022-08-19T12:38:12.491Z,14.23
2022-08-19T12:40:40.965Z,14.32
2022-08-19T12:43:12.551Z,13.20
2022-08-19T12:45:39.123Z,14.95
2022-08-19T12:48:32.880Z,15.88
2022-08-19T12:50:55.130Z,15.75
2022-08-19T12:53:24.997Z,14.05
2022-08-19T12:56:01.348Z,15.30
2022-08-19T12:58:29.798Z,14.73
2022-08-19T13:00:56.488Z,14.80
2022-08-19T13:03:29.911Z,15.43
2022-08-19T13:05:56.780Z,17.67
2022-08-19T13:08:23.569Z,15.73
2022-08-19T13:10:51.485Z,18.65
2022-08-19T13:13:22.806Z,17.58
2022-08-19T13:15:49.462Z,16.35
2022-08-19T13:18:15.988Z,16.30
2022-08-19T13:20:42.867Z,16.40
2022-08-19T13:23:20.684Z,15.35
2022-08-19T13:25:57.518Z,14.27
2022-08-19T13:28:29.267Z,12.82
2022-08-19T13:31:14.406Z,12.27
2022-08-19T13:33:41.702Z,13.90
2022-08-19T13:36:08.724Z,14.63
2022-08-19T13:38:35.957Z,13.93
2022-08-19T13:41:10.953Z,12.52
2022-08-19T13:43:40.859Z,14.40
2022-08-19T13:46:12.594Z,14.18
2022-08-19T13:48:39.099Z,14.70
2022-08-19T13:51:06.326Z,14.10
2022-08-19T13:53:32.895Z,14.40
2022-08-19T13:55:59.774Z,14.75
2022-08-19T13:58:26.552Z,14.82
2022-08-19T14:00:53.312Z,16.05
2022-08-19T14:03:20.713Z,17.30
2022-08-19T14:05:47.641Z,17.83
2022-08-19T14:08:15.090Z,17.05
2022-08-19T14:10:43.605Z,16.30
2022-08-19T14:13:15.567Z,18.15
2022-08-19T14:15:42.360Z,16.60
2022-08-19T14:18:08.845Z,18.60
2022-08-19T14:20:36.199Z,18.65
2022-08-19T14:23:08.690Z,20.75
2022-08-19T14:25:35.405Z,20.50
2022-08-19T14:28:02.356Z,18.88
2022-08-19T14:30:31.862Z,19.80
2022-08-19T14:33:15.849Z,19.30
2022-08-19T14:35:45.870Z,18.02
2022-08-19T14:38:18.228Z,14.52
2022-08-19T14:40:52.941Z,13.30
2022-08-19T14:43:22.983Z,15.07
2022-08-19T14:45:49.558Z,17.25
2022-08-19T14:48:19.430Z,12.65
2022-08-19T14:50:47.336Z,11.10
2022-08-19T14:53:17.508Z,11.77
2022-08-19T14:55:46.756Z,10.93
2022-08-19T14:58:29.203Z,11.50
2022-08-19T15:00:58.264Z,12.23
2022-08-19T15:03:26.935Z,12.60
2022-08-19T15:05:53.879Z,12.00
2022-08-19T15:08:24.451Z,12.43
2022-08-19T15:10:51.891Z,12.40
2022-08-19T15:13:23.127Z,12.60
2022-08-19T15:15:49.810Z,11.82
2022-08-19T15:18:16.446Z,11.73
2022-08-19T15:20:44.477Z,12.77
2022-08-19T15:23:15.967Z,12.52
2022-08-19T15:25:43.199Z,12.63
2022-08-19T15:28:13.733Z,12.93
2022-08-19T15:30:41.366Z,12.40
2022-08-19T15:33:15.211Z,12.80
2022-08-19T15:35:43.318Z,12.70
2022-08-19T15:38:13.829Z,12.80
2022-08-19T15:40:42.542Z,14.00
2022-08-19T15:43:13.324Z,12.40
2022-08-19T15:45:40.214Z,13.05
2022-08-19T15:48:06.961Z,13.35
2022-08-19T15:50:33.985Z,12.98
2022-08-19T15:53:17.784Z,12.40
2022-08-19T15:55:45.667Z,13.48
2022-08-19T15:58:32.796Z,15.85
2022-08-19T16:01:26.992Z,16.20
2022-08-19T16:04:15.964Z,15.13
2022-08-19T16:06:49.187Z,16.88
2022-08-19T16:09:17.493Z,13.90
2022-08-19T16:11:46.434Z,15.60
2022-08-19T16:14:16.165Z,13.75
2022-08-19T16:16:44.499Z,13.10
2022-08-19T16:19:12.213Z,13.55
2022-08-19T16:21:41.890Z,12.98
2022-08-19T16:24:13.019Z,12.63
2022-08-19T16:26:40.748Z,10.70
2022-08-19T16:29:13.136Z,10.15
2022-08-19T16:31:44.306Z,10.60
2022-08-19T16:34:11.699Z,10.73
2022-08-19T16:36:41.701Z,11.25
2022-08-19T16:39:10.613Z,10.95
2022-08-19T16:41:37.762Z,12.18
2022-08-19T16:44:10.230Z,13.43
2022-08-19T16:46:37.304Z,12.90
2022-08-19T16:49:05.156Z,13.55
2022-08-19T16:51:33.643Z,12.82
2022-08-19T16:54:04.822Z,13.75
2022-08-19T16:56:31.482Z,14.50
2022-08-19T16:59:01.077Z,13.68
2022-08-19T17:01:29.057Z,14.13
2022-08-19T17:03:58.457Z,14.88
2022-08-19T17:06:28.327Z,15.20
2022-08-19T17:08:59.539Z,14.40
2022-08-19T17:11:27.825Z,13.95
2022-08-19T17:13:56.725Z,16.15
2022-08-19T17:16:26.039Z,16.02
2022-08-19T17:18:54.290Z,15.85
2022-08-19T17:21:23.752Z,15.63
2022-08-19T17:23:50.522Z,14.98
2022-08-19T17:26:18.593Z,16.00
2022-08-19T17:28:49.590Z,17.50
2022-08-19T17:31:17.517Z,16.38
2022-08-19T17:33:48.121Z,16.13
2022-08-19T17:36:26.324Z,16.05
2022-08-19T17:38:55.464Z,14.63
2022-08-19T17:41:24.199Z,15.50
2022-08-19T17:43:52.139Z,15.57
2022-08-19T17:46:20.300Z,15.30
2022-08-19T17:48:54.602Z,15.90
2022-08-19T17:51:33.419Z,14.75
2022-08-19T17:54:02.194Z,14.90
2022-08-19T17:56:28.789Z,15.48
2022-08-19T17:59:00.691Z,14.68
2022-08-19T18:01:39.017Z,15.00
2022-08-19T18:04:17.353Z,15.60
2022-08-19T18:06:46.629Z,16.17
2022-08-19T18:09:24.716Z,15.52
2022-08-19T18:11:53.328Z,15.23
2022-08-19T18:14:32.754Z,15.38
2022-08-19T18:17:05.379Z,14.70
2022-08-19T18:19:41.292Z,13.27
2022-08-19T18:22:22.329Z,13.38
2022-08-19T18:24:48.954Z,14.52
2022-08-19T18:27:15.470Z,13.77
2022-08-19T18:29:41.981Z,13.45
2022-08-19T18:32:14.722Z,12.88
2022-08-19T18:34:44.054Z,12.55
2022-08-19T18:37:10.918Z,12.65
2022-08-19T18:39:56.471Z,13.77
2022-08-19T18:42:41.531Z,12.60
2022-08-19T18:45:28.382Z,12.30
2022-08-19T18:48:27.322Z,13.23
2022-08-19T18:50:57.191Z,12.82
2022-08-19T18:53:29.828Z,13.18
2022-08-19T18:55:57.543Z,12.73
2022-08-19T18:58:32.188Z,11.70
2022-08-19T19:01:00.357Z,11.88
2022-08-19T19:03:29.730Z,12.60
2022-08-19T19:05:56.226Z,12.10
2022-08-19T19:08:27.178Z,12.40
2022-08-19T19:10:55.813Z,11.93
2022-08-19T19:13:28.894Z,11.63
2022-08-19T19:15:55.445Z,12.80
2022-08-19T19:18:21.987Z,11.85
2022-08-19T19:20:48.494Z,13.43
2022-08-19T19:23:15.454Z,12.80
2022-08-19T19:25:49.789Z,12.50
2022-08-19T19:28:25.179Z,12.90
2022-08-19T19:30:54.259Z,12.57
2022-08-19T19:33:22.417Z,12.52
2022-08-19T19:35:49.026Z,12.43
2022-08-19T19:38:15.810Z,12.48
2022-08-19T19:40:42.343Z,12.30
2022-08-19T19:43:13.277Z,12.18
2022-08-19T19:45:39.906Z,12.13
2022-08-19T19:48:06.743Z,11.73
2022-08-19T19:50:33.275Z,11.50
2022-08-19T19:53:04.162Z,11.65
2022-08-19T19:55:30.775Z,11.88
2022-08-19T19:58:00.174Z,11.45
2022-08-19T20:00:26.667Z,11.32
2022-08-19T20:02:56.001Z,10.38
2022-08-19T20:05:23.915Z,10.98
2022-08-19T20:08:11.077Z,10.70
2022-08-19T20:10:38.110Z,10.20
2022-08-19T20:13:07.469Z,10.30
2022-08-19T20:15:35.455Z,10.60
2022-08-19T20:18:04.758Z,11.27
2022-08-19T20:20:31.734Z,10.68
2022-08-19T20:22:58.459Z,10.07
2022-08-19T20:25:25.171Z,10.27
2022-08-19T20:27:51.775Z,10.30
2022-08-19T20:30:21.269Z,9.25
2022-08-19T20:32:50.725Z,10.13
2022-08-19T20:35:19.415Z,9.95
2022-08-19T20:37:46.828Z,9.50
2022-08-19T20:40:14.899Z,10.00
2022-08-19T20:42:43.494Z,10.23
2022-08-19T20:45:22.627Z,9.85
2022-08-19T20:47:59.142Z,9.02
2022-08-19T20:50:26.142Z,9.70
2022-08-19T20:52:56.550Z,9.93
2022-08-19T20:55:23.203Z,9.55
2022-08-19T20:57:49.697Z,9.10
2022-08-19T21:00:16.418Z,9.52
2022-08-19T21:02:42.890Z,8.95
2022-08-19T21:05:09.698Z,8.43
2022-08-19T21:07:39.562Z,9.10
2022-08-19T21:10:07.152Z,8.80
2022-08-19T21:12:33.791Z,8.77
2022-08-19T21:15:01.797Z,8.90
2022-08-19T21:17:28.356Z,9.45
2022-08-19T21:19:54.893Z,9.07
2022-08-19T21:22:21.602Z,8.88
2022-08-19T21:24:49.357Z,8.98
2022-08-19T21:27:16.053Z,9.10
2022-08-19T21:29:43.026Z,9.63
2022-08-19T21:32:14.233Z,9.38
2022-08-19T21:34:44.052Z,8.35
2022-08-19T21:37:19.938Z,9.27
2022-08-19T21:39:52.693Z,8.48
2022-08-19T21:42:19.429Z,9.55
2022-08-19T21:44:46.203Z,9.10
2022-08-19T21:47:12.875Z,8.93
2022-08-19T21:49:39.962Z,8.98
2022-08-19T21:52:06.981Z,9.40
2022-08-19T21:54:37.882Z,9.95
2022-08-19T21:57:07.029Z,9.30
2022-08-19T21:59:39.688Z,9.57
2022-08-19T22:02:19.896Z,8.95
2022-08-19T22:04:53.485Z,9.50
2022-08-19T22:07:21.989Z,9.68
2022-08-19T22:09:50.617Z,8.80
2022-08-19T22:12:24.846Z,9.80
2022-08-19T22:14:52.158Z,8.73
2022-08-19T22:17:19.618Z,9.20
2022-08-19T22:19:46.561Z,9.98
2022-08-19T22:22:13.481Z,8.98
2022-08-19T22:24:41.173Z,9.35
2022-08-19T22:27:08.679Z,8.68
2022-08-19T22:29:36.484Z,8.48
2022-08-19T22:32:26.614Z,8.73
2022-08-19T22:34:51.805Z,9.32
2022-08-19T22:37:18.519Z,8.13
2022-08-19T22:39:45.595Z,8.70
2022-08-19T22:42:12.425Z,8.52
2022-08-19T22:44:39.501Z,9.18
2022-08-19T22:47:06.147Z,9.98
2022-08-19T22:49:32.671Z,9.15
2022-08-19T22:52:17.851Z,9.10
2022-08-19T22:54:55.165Z,8.82
2022-08-19T22:57:22.659Z,9.15
2022-08-19T22:59:51.312Z,9.18
2022-08-19T23:02:28.194Z,9.63
2022-08-19T23:04:55.760Z,9.77
2022-08-19T23:07:23.496Z,8.90
2022-08-19T23:09:50.547Z,9.02
2022-08-19T23:12:30.541Z,9.95
2022-08-19T23:15:11.211Z,9.32
2022-08-19T23:17:38.098Z,9.43
2022-08-19T23:20:06.905Z,10.30
2022-08-19T23:22:35.078Z,9.63
2022-08-19T23:25:05.676Z,8.80
2022-08-19T23:27:51.745Z,8.18
2022-08-19T23:30:27.391Z,9.57
2022-08-19T23:33:12.677Z,9.20
2022-08-19T23:35:41.059Z,9.23
2022-08-19T23:38:09.017Z,9.80
2022-08-19T23:40:37.293Z,9.38
2022-08-19T23:43:08.179Z,9.52
2022-08-19T23:45:40.525Z,9.90
2022-08-19T23:48:10.191Z,10.48
2022-08-19T23:50:38.793Z,9.45
2022-08-19T23:53:13.337Z,9.35
2022-08-19T23:55:43.810Z,8.70
2022-08-19T23:58:11.401Z,9.63
